Time;durP1;ratioP1;P1;durP2;ratioP2;P2;SDS_P1;SDS_P2;PMS_P1;PMS_P2;Temp;Humidity;BMP_temperature;BMP_pressure;BME280_temperature;BME280_humidity;BME280_pressure;Samples;Min_cycle;Max_cycle;Signal;HPM_P1;HPM_P2
2022/12/27 00:01:21;;;;;;;;;;;2.60;99.90;;;;;;5046309;28;19932;-70
2022/12/27 00:03:47;;;;;;;;;;;2.70;99.90;;;;;;5031138;28;20693;-70
2022/12/27 00:06:18;;;;;;;;;;;2.60;99.90;;;;;;5030117;28;20009;-70
2022/12/27 00:08:44;;;;;;;;;;;2.70;99.90;;;;;;5051245;28;19951;-70
2022/12/27 00:11:12;;;;;;;;;;;2.60;99.90;;;;;;5054400;28;19924;-71
2022/12/27 00:13:38;;;;;;;;;;;2.60;99.90;;;;;;5086815;28;20305;-71
2022/12/27 00:16:09;;;;;;;;;;;2.60;99.90;;;;;;5089014;28;19927;-70
2022/12/27 00:18:34;;;;;;;;;;;2.60;99.90;;;;;;5072144;28;19928;-70
2022/12/27 00:21:02;;;;;;;;;;;2.70;99.90;;;;;;5088281;28;20351;-70
2022/12/27 00:23:29;;;;;;;;;;;2.70;99.90;;;;;;5085685;28;19950;-70
2022/12/27 00:26:00;;;;;;;;;;;2.70;99.90;;;;;;5070287;28;21791;-70
2022/12/27 00:28:28;;;;;;;;;;;2.70;99.90;;;;;;5070136;28;19920;-70
2022/12/27 00:31:04;;;;;;;;;;;2.80;99.90;;;;;;5085384;28;20365;-70
2022/12/27 00:33:39;;;;;;;;;;;2.80;99.90;;;;;;5070645;28;20346;-71
2022/12/27 00:36:07;;;;;;;;;;;2.70;99.90;;;;;;5069929;28;19927;-70
2022/12/27 00:38:33;;;;;;;;;;;2.70;99.90;;;;;;5054485;28;19960;-71
2022/12/27 00:40:59;;;;;;;;;;;2.70;99.90;;;;;;5052764;28;20418;-70
2022/12/27 00:43:25;;;;;;;;;;;2.70;99.90;;;;;;5089169;28;20344;-71
2022/12/27 00:45:50;;;;;;;;;;;2.70;99.90;;;;;;5054180;28;19934;-71
2022/12/27 00:48:19;;;;;;;;;;;2.70;99.90;;;;;;5070292;28;20385;-71
2022/12/27 00:50:45;;;;;;;;;;;2.70;99.90;;;;;;5070501;28;19927;-71
2022/12/27 00:53:11;;;;;;;;;;;2.70;99.90;;;;;;5069995;28;19921;-71
2022/12/27 00:55:38;;;;;;;;;;;2.70;99.90;;;;;;5068670;28;19923;-71
2022/12/27 00:58:03;;;;;;;;;;;2.70;99.90;;;;;;5084518;28;20949;-71
2022/12/27 01:00:29;;;;;;;;;;;2.70;99.90;;;;;;5068563;28;19931;-71
2022/12/27 01:02:55;;;;;;;;;;;2.70;99.90;;;;;;5068804;28;19920;-71
2022/12/27 01:05:21;;;;;;;;;;;2.70;99.90;;;;;;5053676;28;19938;-70
2022/12/27 01:07:46;;;;;;;;;;;2.80;99.90;;;;;;5086332;28;19956;-71
2022/12/27 01:10:12;;;;;;;;;;;2.80;99.90;;;;;;5053568;28;20439;-70
2022/12/27 01:12:38;;;;;;;;;;;2.80;99.90;;;;;;5068634;28;20391;-71
2022/12/27 01:15:05;;;;;;;;;;;2.70;99.90;;;;;;5069730;28;19945;-71
2022/12/27 01:17:30;;;;;;;;;;;2.70;99.90;;;;;;5069789;28;19924;-71
2022/12/27 01:19:56;;;;;;;;;;;2.70;99.90;;;;;;5086594;28;19920;-71
2022/12/27 01:22:22;;;;;;;;;;;2.70;99.90;;;;;;5039673;28;20328;-71
2022/12/27 01:24:47;;;;;;;;;;;2.70;99.90;;;;;;5086314;28;19924;-70
2022/12/27 01:27:13;;;;;;;;;;;2.70;99.90;;;;;;5084919;28;19928;-71
2022/12/27 01:29:41;;;;;;;;;;;2.70;99.90;;;;;;5069433;28;19931;-71
2022/12/27 01:32:07;;;;;;;;;;;2.60;99.90;;;;;;5069966;28;20274;-70
2022/12/27 01:34:33;;;;;;;;;;;2.60;99.90;;;;;;5084991;28;19931;-71
2022/12/27 01:36:59;;;;;;;;;;;2.60;99.90;;;;;;5069060;28;19928;-71
2022/12/27 01:39:28;;;;;;;;;;;2.60;99.90;;;;;;5068340;28;19927;-70
2022/12/27 01:44:38;;;;;;;;;;;2.60;99.90;;;;;;5067816;28;20010;-71
2022/12/27 01:47:22;;;;;;;;;;;2.60;99.90;;;;;;5086735;28;20007;-71
2022/12/27 01:50:23;;;;;;;;;;;2.60;99.90;;;;;;5068419;28;19998;-70
2022/12/27 01:52:52;;;;;;;;;;;2.50;99.90;;;;;;4984657;28;19921;-71
2022/12/27 01:55:20;;;;;;;;;;;2.60;99.90;;;;;;5055360;28;19976;-70
2022/12/27 01:58:12;;;;;;;;;;;2.60;99.90;;;;;;5068082;28;19920;-70
2022/12/27 02:00:39;;;;;;;;;;;2.60;99.90;;;;;;5073955;28;20445;-71
2022/12/27 02:03:06;;;;;;;;;;;2.50;99.90;;;;;;5077598;28;20377;-70
2022/12/27 02:05:40;;;;;;;;;;;2.60;99.90;;;;;;5091987;28;19920;-70
2022/12/27 02:08:16;;;;;;;;;;;2.60;99.90;;;;;;5058278;28;20297;-71
2022/12/27 02:10:42;;;;;;;;;;;2.60;99.90;;;;;;5080100;28;19924;-71
2022/12/27 02:13:08;;;;;;;;;;;2.60;99.90;;;;;;5056628;28;20434;-71
2022/12/27 02:15:34;;;;;;;;;;;2.60;99.90;;;;;;5088904;28;19947;-71
2022/12/27 02:18:00;;;;;;;;;;;2.60;99.90;;;;;;5090287;28;20010;-71
2022/12/27 02:20:31;;;;;;;;;;;2.60;99.90;;;;;;5056445;28;19921;-70
2022/12/27 02:26:12;;;;;;;;;;;2.60;99.90;;;;;;5089531;28;19920;-71
2022/12/27 02:28:56;;;;;;;;;;;2.70;99.90;;;;;;5070150;28;19920;-71
2022/12/27 02:31:42;;;;;;;;;;;2.80;99.90;;;;;;5072959;28;19975;-71
2022/12/27 02:34:28;;;;;;;;;;;2.80;99.90;;;;;;5059327;28;19988;-70
2022/12/27 02:36:56;;;;;;;;;;;2.80;99.90;;;;;;5056105;28;19925;-71
2022/12/27 02:39:23;;;;;;;;;;;2.80;99.90;;;;;;5098245;28;20373;-71
2022/12/27 02:53:05;;;;;;;;;;;2.50;99.90;;;;;;5093971;28;19920;-70
2022/12/27 02:58:34;;;;;;;;;;;2.50;99.90;;;;;;5092853;28;20395;-71
2022/12/27 03:04:05;;;;;;;;;;;2.50;99.90;;;;;;5095981;28;19919;-71
2022/12/27 03:07:03;;;;;;;;;;;2.50;99.90;;;;;;5076544;28;20006;-70
2022/12/27 03:15:55;;;;;;;;;;;2.50;99.90;;;;;;5098782;28;19959;-71
2022/12/27 03:18:26;;;;;;;;;;;2.50;99.90;;;;;;5095332;28;19924;-71
2022/12/27 03:26:26;;;;;;;;;;;2.60;99.90;;;;;;5073773;28;20312;-71
2022/12/27 03:34:34;;;;;;;;;;;2.60;99.90;;;;;;5082624;28;20003;-71
2022/12/27 03:39:54;;;;;;;;;;;2.70;99.90;;;;;;5077972;28;19942;-70
2022/12/27 03:45:08;;;;;;;;;;;2.70;99.90;;;;;;5075021;28;19927;-70
2022/12/27 03:47:48;;;;;;;;;;;2.60;99.90;;;;;;5077424;28;19963;-70
2022/12/27 03:50:26;;;;;;;;;;;2.60;99.90;;;;;;5093629;28;19954;-71
2022/12/27 03:53:01;;;;;;;;;;;2.70;99.90;;;;;;5087060;28;19920;-71
2022/12/27 03:55:27;;;;;;;;;;;2.70;99.90;;;;;;5101320;28;19935;-70
2022/12/27 03:57:55;;;;;;;;;;;2.70;99.90;;;;;;5076887;28;19920;-70
2022/12/27 04:00:21;;;;;;;;;;;2.80;99.90;;;;;;5077187;28;19926;-71
2022/12/27 04:02:47;;;;;;;;;;;2.80;99.90;;;;;;5093851;28;19928;-70
2022/12/27 04:05:12;;;;;;;;;;;2.80;99.90;;;;;;5066842;28;20024;-71
2022/12/27 04:07:38;;;;;;;;;;;2.80;99.90;;;;;;5095172;28;19920;-71
2022/12/27 04:34:44;;;;;;;;;;;2.90;99.90;;;;;;5086091;28;19953;-70
2022/12/27 04:37:12;;;;;;;;;;;3.20;99.90;;;;;;5087176;28;19958;-70
2022/12/27 04:39:37;;;;;;;;;;;2.90;99.90;;;;;;5085366;28;20014;-70
2022/12/27 04:55:56;;;;;;;;;;;3.00;99.90;;;;;;5069513;28;19932;-71
2022/12/27 04:58:22;;;;;;;;;;;3.10;99.90;;;;;;5069767;28;20275;-70
2022/12/27 05:03:32;;;;;;;;;;;3.20;99.90;;;;;;5070004;28;19920;-71
2022/12/27 05:05:59;;;;;;;;;;;3.20;99.90;;;;;;5051653;28;19997;-71
2022/12/27 05:13:59;;;;;;;;;;;3.20;99.90;;;;;;5081179;28;20042;-71
2022/12/27 05:16:34;;;;;;;;;;;3.20;99.90;;;;;;5083252;28;19939;-71
2022/12/27 05:19:02;;;;;;;;;;;3.20;99.90;;;;;;5065703;28;19927;-71
2022/12/27 05:21:28;;;;;;;;;;;3.20;99.90;;;;;;5048299;28;19931;-71
2022/12/27 05:26:38;;;;;;;;;;;3.30;99.90;;;;;;5067175;28;20297;-71
2022/12/27 05:29:05;;;;;;;;;;;3.30;99.90;;;;;;5066472;28;19932;-71
2022/12/27 05:31:34;;;;;;;;;;;3.30;99.90;;;;;;5065348;28;20783;-71
2022/12/27 05:34:02;;;;;;;;;;;3.20;99.90;;;;;;5048255;28;20378;-71
2022/12/27 05:36:30;;;;;;;;;;;3.20;99.90;;;;;;5065071;28;19920;-71
2022/12/27 05:38:56;;;;;;;;;;;3.20;99.90;;;;;;5083472;28;19935;-71
2022/12/27 05:41:22;;;;;;;;;;;3.10;99.90;;;;;;5066175;28;20333;-71
2022/12/27 05:43:48;;;;;;;;;;;3.10;99.90;;;;;;5065441;28;20054;-71
2022/12/27 05:46:20;;;;;;;;;;;3.10;99.90;;;;;;5047095;28;19920;-71
2022/12/27 05:48:46;;;;;;;;;;;3.00;99.90;;;;;;5047505;28;19928;-71
2022/12/27 05:51:16;;;;;;;;;;;2.90;99.90;;;;;;5082104;28;19921;-71
2022/12/27 05:53:42;;;;;;;;;;;3.00;99.90;;;;;;5064719;28;20732;-71
2022/12/27 05:56:10;;;;;;;;;;;3.00;99.90;;;;;;5066013;28;19920;-71
2022/12/27 05:58:37;;;;;;;;;;;3.00;99.90;;;;;;5064244;28;19927;-71
2022/12/27 06:01:06;;;;;;;;;;;3.00;99.90;;;;;;5048377;28;20309;-70
2022/12/27 06:03:33;;;;;;;;;;;3.00;99.90;;;;;;5065261;28;19921;-70
2022/12/27 06:06:00;;;;;;;;;;;2.90;99.90;;;;;;5065794;28;20460;-71
2022/12/27 06:08:26;;;;;;;;;;;2.90;99.90;;;;;;5064626;28;20015;-71
2022/12/27 06:10:59;;;;;;;;;;;3.00;99.90;;;;;;5063965;28;20370;-71
2022/12/27 06:13:28;;;;;;;;;;;2.90;99.90;;;;;;5067778;28;19948;-71
2022/12/27 06:15:57;;;;;;;;;;;3.00;99.90;;;;;;5043436;28;19936;-70
2022/12/27 06:18:23;;;;;;;;;;;3.00;99.90;;;;;;5044693;28;19967;-71
2022/12/27 06:20:48;;;;;;;;;;;3.00;99.90;;;;;;5045251;28;19960;-71
2022/12/27 06:23:14;;;;;;;;;;;3.00;99.90;;;;;;5045882;28;19979;-71
2022/12/27 06:25:40;;;;;;;;;;;3.00;99.90;;;;;;5043141;28;20114;-70
2022/12/27 06:28:06;;;;;;;;;;;3.10;99.90;;;;;;5061719;28;19975;-71
2022/12/27 06:30:32;;;;;;;;;;;3.10;99.90;;;;;;5044187;28;19925;-71
2022/12/27 06:32:57;;;;;;;;;;;3.20;99.90;;;;;;5045067;28;19972;-71
2022/12/27 06:35:23;;;;;;;;;;;3.10;99.90;;;;;;5043954;28;19952;-71
2022/12/27 06:37:48;;;;;;;;;;;3.20;99.90;;;;;;5028054;28;19964;-71
2022/12/27 06:40:14;;;;;;;;;;;3.20;99.90;;;;;;5042939;28;20144;-71
2022/12/27 06:42:40;;;;;;;;;;;3.20;99.90;;;;;;5045207;28;19925;-70
2022/12/27 06:45:06;;;;;;;;;;;3.30;99.90;;;;;;5042887;28;20473;-71
2022/12/27 06:47:31;;;;;;;;;;;3.30;99.90;;;;;;5042809;28;19948;-71
2022/12/27 06:49:57;;;;;;;;;;;3.30;99.90;;;;;;5045491;28;19932;-71
2022/12/27 06:52:23;;;;;;;;;;;3.40;99.90;;;;;;5027573;28;19925;-71
2022/12/27 06:54:48;;;;;;;;;;;3.30;99.90;;;;;;5046171;28;20451;-71
2022/12/27 06:57:18;;;;;;;;;;;3.30;99.90;;;;;;5049124;28;20427;-70
2022/12/27 06:59:43;;;;;;;;;;;3.30;99.90;;;;;;5047060;28;19925;-71
2022/12/27 07:02:09;;;;;;;;;;;3.40;99.90;;;;;;5044702;28;19921;-71
2022/12/27 07:04:38;;;;;;;;;;;3.40;99.90;;;;;;5045058;28;19928;-70
2022/12/27 07:07:04;;;;;;;;;;;3.30;99.90;;;;;;5061290;28;19950;-71
2022/12/27 07:09:30;;;;;;;;;;;3.70;99.90;;;;;;5044834;28;19999;-71
2022/12/27 07:11:55;;;;;;;;;;;3.40;99.90;;;;;;5047199;28;20297;-71
2022/12/27 07:14:25;;;;;;;;;;;3.40;99.90;;;;;;5051690;28;20413;-71
2022/12/27 07:16:51;;;;;;;;;;;3.40;99.90;;;;;;5082903;28;19927;-71
2022/12/27 07:19:16;;;;;;;;;;;3.40;99.90;;;;;;5084207;28;19920;-71
2022/12/27 07:21:42;;;;;;;;;;;3.30;99.90;;;;;;5083140;28;19973;-71
2022/12/27 07:24:07;;;;;;;;;;;3.30;99.90;;;;;;5082492;28;19946;-71
2022/12/27 07:26:33;;;;;;;;;;;3.30;99.90;;;;;;5083272;28;19928;-71
2022/12/27 07:28:59;;;;;;;;;;;3.20;99.90;;;;;;5083943;28;19932;-71
2022/12/27 07:31:28;;;;;;;;;;;3.10;99.90;;;;;;5067035;28;19920;-71
2022/12/27 07:33:54;;;;;;;;;;;3.10;99.90;;;;;;5069464;28;19924;-71
2022/12/27 07:36:28;;;;;;;;;;;3.00;99.90;;;;;;5070460;28;19981;-71
2022/12/27 07:38:54;;;;;;;;;;;3.00;99.90;;;;;;5085896;28;19928;-71
2022/12/27 07:41:20;;;;;;;;;;;3.00;99.90;;;;;;5069354;28;19927;-71
2022/12/27 07:43:46;;;;;;;;;;;3.00;99.90;;;;;;5054477;28;19920;-71
2022/12/27 07:46:13;;;;;;;;;;;2.90;99.90;;;;;;5068515;28;19928;-71
2022/12/27 07:48:39;;;;;;;;;;;2.90;99.90;;;;;;5070409;28;19928;-71
2022/12/27 07:51:05;;;;;;;;;;;2.90;99.90;;;;;;5052779;28;20408;-70
2022/12/27 07:53:30;;;;;;;;;;;2.90;99.90;;;;;;5071163;28;19924;-71
2022/12/27 07:55:56;;;;;;;;;;;2.90;99.90;;;;;;5087175;28;20018;-71
2022/12/27 07:58:23;;;;;;;;;;;2.90;99.90;;;;;;5069442;28;19936;-71
2022/12/27 08:00:50;;;;;;;;;;;2.90;99.90;;;;;;5087126;28;20373;-71
2022/12/27 08:03:16;;;;;;;;;;;2.90;99.90;;;;;;5052319;28;19942;-71
2022/12/27 08:05:48;;;;;;;;;;;2.90;99.90;;;;;;5069689;28;19986;-71
2022/12/27 08:08:15;;;;;;;;;;;2.80;99.90;;;;;;5085595;28;19934;-71
2022/12/27 08:10:41;;;;;;;;;;;2.80;99.90;;;;;;5053379;28;20257;-71
2022/12/27 08:13:07;;;;;;;;;;;2.80;99.90;;;;;;5081622;28;19932;-71
2022/12/27 08:15:32;;;;;;;;;;;2.80;99.90;;;;;;5048435;28;19933;-71
2022/12/27 08:17:58;;;;;;;;;;;2.80;99.90;;;;;;5047764;28;19924;-71
2022/12/27 08:20:24;;;;;;;;;;;2.80;99.90;;;;;;5082929;28;19927;-71
2022/12/27 08:22:53;;;;;;;;;;;2.80;99.90;;;;;;5067262;28;19921;-71
2022/12/27 08:25:21;;;;;;;;;;;2.90;99.90;;;;;;5047828;28;20007;-70
2022/12/27 08:27:47;;;;;;;;;;;2.90;99.90;;;;;;5066052;28;19925;-71
2022/12/27 08:30:12;;;;;;;;;;;2.90;99.90;;;;;;5070025;28;19938;-70
2022/12/27 08:32:38;;;;;;;;;;;3.00;99.90;;;;;;5051700;28;19932;-71
2022/12/27 08:35:04;;;;;;;;;;;3.00;99.90;;;;;;5050339;28;20381;-71
2022/12/27 08:37:29;;;;;;;;;;;3.00;99.90;;;;;;5072078;28;20392;-71
2022/12/27 08:39:58;;;;;;;;;;;3.00;99.90;;;;;;5053709;28;19998;-71
2022/12/27 08:42:25;;;;;;;;;;;3.10;99.90;;;;;;5070378;28;20437;-71
2022/12/27 08:44:50;;;;;;;;;;;3.10;99.90;;;;;;5055101;28;19920;-71
2022/12/27 08:47:18;;;;;;;;;;;3.10;99.90;;;;;;5070076;28;19929;-70
2022/12/27 08:49:50;;;;;;;;;;;3.30;99.90;;;;;;5068934;28;20305;-71
2022/12/27 08:52:15;;;;;;;;;;;3.20;99.90;;;;;;5052940;28;19927;-71
2022/12/27 08:54:41;;;;;;;;;;;3.30;99.90;;;;;;5073582;28;19921;-70
2022/12/27 08:57:07;;;;;;;;;;;3.30;99.90;;;;;;5069700;28;20433;-70
2022/12/27 08:59:34;;;;;;;;;;;3.50;99.90;;;;;;5052115;28;20012;-71
2022/12/27 09:01:59;;;;;;;;;;;2.80;99.90;;;;;;5086148;28;19969;-71
2022/12/27 09:04:25;;;;;;;;;;;3.80;99.90;;;;;;5068815;28;20388;-71
2022/12/27 09:06:51;;;;;;;;;;;3.80;99.90;;;;;;5071170;28;19920;-71
2022/12/27 09:09:20;;;;;;;;;;;4.30;99.90;;;;;;5069476;28;20412;-71
2022/12/27 09:11:49;;;;;;;;;;;4.80;99.90;;;;;;5070953;28;19925;-71
2022/12/27 09:14:15;;;;;;;;;;;5.30;99.90;;;;;;5055950;28;20293;-71
2022/12/27 09:16:40;;;;;;;;;;;5.30;99.90;;;;;;5055567;28;19920;-71
2022/12/27 09:19:06;;;;;;;;;;;5.00;99.90;;;;;;5056452;28;19927;-71
2022/12/27 09:21:33;;;;;;;;;;;4.50;99.90;;;;;;5089766;28;19920;-71
2022/12/27 09:23:59;;;;;;;;;;;4.40;99.90;;;;;;5072812;28;19928;-71
2022/12/27 09:26:27;;;;;;;;;;;4.30;99.90;;;;;;5071020;28;19974;-71
2022/12/27 09:28:53;;;;;;;;;;;4.30;99.90;;;;;;5085149;28;19972;-71
2022/12/27 09:31:28;;;;;;;;;;;4.20;99.90;;;;;;5085395;28;19927;-71
2022/12/27 09:33:54;;;;;;;;;;;4.20;99.90;;;;;;5082292;28;19935;-72
2022/12/27 09:36:21;;;;;;;;;;;4.70;99.90;;;;;;5051995;28;20053;-71
2022/12/27 09:38:47;;;;;;;;;;;5.40;99.90;;;;;;5068657;28;20377;-72
2022/12/27 09:41:19;;;;;;;;;;;5.60;99.90;;;;;;5068540;28;19931;-71
2022/12/27 09:43:54;;;;;;;;;;;6.10;99.90;;;;;;5068353;28;19920;-71
2022/12/27 09:46:25;;;;;;;;;;;6.30;99.90;;;;;;5084464;28;19964;-71
2022/12/27 09:48:54;;;;;;;;;;;6.40;99.90;;;;;;5051510;28;19931;-71
2022/12/27 09:51:20;;;;;;;;;;;6.50;99.90;;;;;;5068352;28;19926;-71
2022/12/27 09:53:54;;;;;;;;;;;6.60;99.90;;;;;;5067639;28;19920;-72
2022/12/27 09:56:27;;;;;;;;;;;6.60;99.90;;;;;;5066985;28;19930;-71
2022/12/27 09:59:04;;;;;;;;;;;6.10;99.90;;;;;;5050738;28;19920;-72
2022/12/27 10:01:31;;;;;;;;;;;5.90;99.90;;;;;;5066029;28;19928;-71
2022/12/27 10:03:57;;;;;;;;;;;5.60;99.90;;;;;;5085024;28;20509;-71
2022/12/27 10:06:44;;;;;;;;;;;5.40;99.90;;;;;;5051436;28;19920;-71
2022/12/27 10:09:21;;;;;;;;;;;5.60;99.90;;;;;;5083891;28;19984;-71
2022/12/27 10:12:00;;;;;;;;;;;5.60;99.90;;;;;;5068569;28;19977;-71
2022/12/27 10:14:36;;;;;;;;;;;5.30;99.90;;;;;;5083142;28;19990;-71
2022/12/27 10:17:14;;;;;;;;;;;5.20;99.90;;;;;;5083500;28;20360;-71
2022/12/27 10:19:40;;;;;;;;;;;5.00;99.90;;;;;;5068458;28;20423;-71
2022/12/27 10:22:37;;;;;;;;;;;4.90;99.90;;;;;;5068402;28;19920;-71
2022/12/27 10:25:04;;;;;;;;;;;4.80;99.90;;;;;;5072215;28;19954;-71
2022/12/27 10:27:34;;;;;;;;;;;4.70;99.90;;;;;;5066334;28;19954;-71
2022/12/27 10:30:03;;;;;;;;;;;4.60;99.90;;;;;;5065861;28;19931;-71
2022/12/27 10:32:29;;;;;;;;;;;4.60;99.90;;;;;;5066543;28;19928;-71
2022/12/27 10:34:56;;;;;;;;;;;4.70;99.90;;;;;;5070840;28;19927;-71
2022/12/27 10:37:22;;;;;;;;;;;4.70;99.90;;;;;;5086455;28;20338;-71
2022/12/27 10:39:55;;;;;;;;;;;4.70;99.90;;;;;;5068780;28;19982;-71
2022/12/27 10:42:29;;;;;;;;;;;4.70;99.90;;;;;;5054083;28;19928;-71
2022/12/27 10:45:16;;;;;;;;;;;4.60;99.90;;;;;;5086453;28;20306;-71
2022/12/27 10:47:42;;;;;;;;;;;4.60;99.90;;;;;;5071118;28;20248;-71
2022/12/27 10:50:10;;;;;;;;;;;4.60;99.90;;;;;;5071774;28;20369;-71
2022/12/27 10:52:36;;;;;;;;;;;4.60;99.90;;;;;;5071584;28;20015;-71
2022/12/27 10:55:02;;;;;;;;;;;4.60;99.90;;;;;;5070459;28;20081;-71
2022/12/27 10:57:32;;;;;;;;;;;4.70;99.90;;;;;;5054924;28;20440;-71
2022/12/27 11:00:17;;;;;;;;;;;4.80;99.90;;;;;;5064941;28;19927;-71
2022/12/27 11:02:48;;;;;;;;;;;4.80;99.90;;;;;;5086251;28;19927;-71
2022/12/27 11:05:19;;;;;;;;;;;4.90;99.90;;;;;;5067828;28;19927;-71
2022/12/27 11:07:44;;;;;;;;;;;5.20;99.90;;;;;;5084409;28;19981;-71
2022/12/27 11:10:24;;;;;;;;;;;5.40;99.90;;;;;;5071156;28;19924;-71
2022/12/27 11:12:57;;;;;;;;;;;5.50;99.90;;;;;;5085621;28;19928;-71
2022/12/27 11:15:26;;;;;;;;;;;5.50;99.90;;;;;;5069830;28;20180;-71
2022/12/27 11:17:57;;;;;;;;;;;5.50;99.90;;;;;;5069316;28;20475;-71
2022/12/27 11:20:31;;;;;;;;;;;5.50;99.90;;;;;;5071885;28;19920;-71
2022/12/27 11:23:05;;;;;;;;;;;5.60;99.90;;;;;;5088775;28;19958;-71
2022/12/27 11:25:32;;;;;;;;;;;5.60;99.90;;;;;;5070433;28;19955;-71
2022/12/27 11:28:04;;;;;;;;;;;5.50;99.90;;;;;;5087526;28;19927;-71
2022/12/27 11:30:30;;;;;;;;;;;5.50;99.90;;;;;;5088529;28;20316;-71
2022/12/27 11:33:04;;;;;;;;;;;5.50;99.90;;;;;;5054795;28;19935;-71
2022/12/27 11:35:33;;;;;;;;;;;5.50;99.90;;;;;;5068851;28;20293;-71
2022/12/27 11:38:00;;;;;;;;;;;5.60;99.90;;;;;;5069864;28;19920;-71
2022/12/27 11:40:33;;;;;;;;;;;5.70;99.90;;;;;;5058386;28;19931;-71
2022/12/27 11:43:03;;;;;;;;;;;5.70;99.90;;;;;;5057507;28;20311;-71
2022/12/27 11:45:34;;;;;;;;;;;5.80;99.90;;;;;;5088514;28;19932;-71
2022/12/27 11:48:23;;;;;;;;;;;5.80;99.90;;;;;;5068558;28;20408;-71
2022/12/27 11:51:00;;;;;;;;;;;5.80;99.90;;;;;;5059564;28;19928;-71
2022/12/27 11:53:43;;;;;;;;;;;5.80;99.90;;;;;;5070079;28;20250;-71
2022/12/27 11:56:16;;;;;;;;;;;5.80;99.90;;;;;;5069602;28;19920;-71
2022/12/27 11:58:48;;;;;;;;;;;5.90;99.90;;;;;;5054497;28;19932;-71
2022/12/27 12:01:17;;;;;;;;;;;5.90;99.90;;;;;;5087260;28;19920;-70
2022/12/27 12:03:42;;;;;;;;;;;6.00;99.90;;;;;;5069583;28;20174;-71
2022/12/27 12:06:28;;;;;;;;;;;6.10;99.90;;;;;;5068744;28;19920;-71
2022/12/27 12:09:05;;;;;;;;;;;6.00;99.90;;;;;;5069176;28;19939;-71
2022/12/27 12:11:40;;;;;;;;;;;6.10;99.90;;;;;;5071149;28;20423;-71
2022/12/27 12:14:15;;;;;;;;;;;6.10;99.90;;;;;;5088587;28;19969;-71
2022/12/27 12:17:06;;;;;;;;;;;6.10;99.90;;;;;;5085693;28;19959;-71
2022/12/27 12:19:50;;;;;;;;;;;6.10;99.90;;;;;;5069722;28;19920;-71
2022/12/27 12:22:28;;;;;;;;;;;6.00;99.90;;;;;;5055942;28;19928;-71
2022/12/27 12:24:57;;;;;;;;;;;6.00;99.90;;;;;;5070822;28;19928;-71
2022/12/27 12:27:31;;;;;;;;;;;5.90;99.90;;;;;;5087672;28;19927;-71
2022/12/27 12:30:15;;;;;;;;;;;5.90;99.90;;;;;;5053476;28;19923;-71
2022/12/27 12:32:47;;;;;;;;;;;5.90;99.90;;;;;;5071125;28;20427;-71
2022/12/27 12:35:24;;;;;;;;;;;5.80;99.90;;;;;;5070710;28;19931;-71
2022/12/27 12:38:00;;;;;;;;;;;5.90;99.90;;;;;;5069130;28;19947;-71
2022/12/27 12:40:39;;;;;;;;;;;5.90;99.90;;;;;;5069172;28;20300;-71
2022/12/27 12:43:12;;;;;;;;;;;6.00;99.90;;;;;;5067941;28;19923;-71
2022/12/27 12:45:56;;;;;;;;;;;6.10;99.90;;;;;;5069629;28;19920;-71
2022/12/27 12:48:37;;;;;;;;;;;6.00;99.90;;;;;;5085963;28;19970;-71
2022/12/27 12:51:03;;;;;;;;;;;5.80;99.90;;;;;;5067230;28;19931;-71
2022/12/27 12:53:42;;;;;;;;;;;5.80;99.90;;;;;;5086535;28;20356;-71
2022/12/27 12:56:27;;;;;;;;;;;5.80;99.90;;;;;;5084784;28;20327;-71
2022/12/27 12:59:11;;;;;;;;;;;5.80;99.90;;;;;;5065927;28;19920;-71
2022/12/27 13:01:59;;;;;;;;;;;5.90;99.90;;;;;;5065481;28;20645;-71
2022/12/27 13:04:43;;;;;;;;;;;6.00;99.90;;;;;;5067598;28;20011;-71
2022/12/27 13:07:12;;;;;;;;;;;6.00;99.90;;;;;;5084170;28;20319;-71
2022/12/27 13:09:43;;;;;;;;;;;6.00;99.90;;;;;;5055031;28;20277;-71
2022/12/27 13:12:15;;;;;;;;;;;6.00;99.90;;;;;;5072058;28;19920;-71
2022/12/27 13:14:54;;;;;;;;;;;5.90;99.90;;;;;;5073629;28;19966;-71
2022/12/27 13:17:38;;;;;;;;;;;5.90;99.90;;;;;;5088674;28;20026;-71
2022/12/27 13:20:34;;;;;;;;;;;5.90;99.90;;;;;;5072229;28;19935;-71
2022/12/27 13:23:19;;;;;;;;;;;5.90;99.90;;;;;;5064365;28;19928;-70
2022/12/27 13:26:01;;;;;;;;;;;6.00;99.90;;;;;;5082045;28;20414;-70
2022/12/27 13:28:35;;;;;;;;;;;6.10;99.90;;;;;;5049996;28;19950;-70
2022/12/27 13:31:19;;;;;;;;;;;6.10;99.90;;;;;;5083858;28;20022;-70
2022/12/27 13:34:04;;;;;;;;;;;6.10;99.90;;;;;;5063465;28;19931;-70
2022/12/27 13:36:35;;;;;;;;;;;5.90;99.90;;;;;;5081662;28;19936;-71
2022/12/27 13:39:13;;;;;;;;;;;5.90;99.90;;;;;;5080005;28;19973;-71
2022/12/27 13:41:57;;;;;;;;;;;5.90;99.90;;;;;;5064383;28;20002;-70
2022/12/27 13:44:30;;;;;;;;;;;5.90;99.90;;;;;;5078086;28;19920;-70
2022/12/27 13:47:06;;;;;;;;;;;5.90;99.90;;;;;;5083598;28;19920;-70
2022/12/27 13:49:50;;;;;;;;;;;5.90;99.90;;;;;;5105067;28;19924;-71
2022/12/27 13:52:19;;;;;;;;;;;5.90;99.90;;;;;;5080084;28;19943;-71
2022/12/27 13:55:06;;;;;;;;;;;5.90;99.90;;;;;;5084605;28;19925;-71
2022/12/27 13:57:38;;;;;;;;;;;5.80;99.90;;;;;;5081084;28;19946;-71
2022/12/27 14:00:30;;;;;;;;;;;5.80;99.90;;;;;;5061079;28;20424;-71
2022/12/27 14:03:09;;;;;;;;;;;5.70;99.90;;;;;;5063571;28;19924;-71
2022/12/27 14:05:44;;;;;;;;;;;5.70;99.90;;;;;;5065464;28;19928;-71
2022/12/27 14:08:20;;;;;;;;;;;5.70;99.90;;;;;;5081770;28;19924;-71
2022/12/27 14:10:50;;;;;;;;;;;5.70;99.90;;;;;;5078226;28;20472;-71
2022/12/27 14:13:31;;;;;;;;;;;5.60;99.90;;;;;;5083746;28;19936;-71
2022/12/27 14:16:15;;;;;;;;;;;5.60;99.90;;;;;;5081079;28;19924;-71
2022/12/27 14:18:57;;;;;;;;;;;5.50;99.90;;;;;;5080304;28;19973;-71
2022/12/27 14:21:31;;;;;;;;;;;5.50;99.90;;;;;;5064423;28;20050;-70
2022/12/27 14:24:19;;;;;;;;;;;5.50;99.90;;;;;;5064166;28;20506;-71
2022/12/27 14:27:02;;;;;;;;;;;5.50;99.90;;;;;;5067314;28;19928;-71
2022/12/27 14:29:47;;;;;;;;;;;5.40;99.90;;;;;;5054326;28;20403;-71
2022/12/27 14:32:16;;;;;;;;;;;5.40;99.90;;;;;;5087331;28;20018;-71
2022/12/27 14:34:47;;;;;;;;;;;5.40;99.90;;;;;;5069511;28;20389;-71
2022/12/27 14:37:32;;;;;;;;;;;5.30;99.90;;;;;;5066389;28;19927;-71
2022/12/27 14:40:11;;;;;;;;;;;5.30;99.90;;;;;;5071629;28;19920;-71
2022/12/27 14:42:56;;;;;;;;;;;5.20;99.90;;;;;;5073370;28;20393;-71
2022/12/27 14:45:41;;;;;;;;;;;5.20;99.90;;;;;;5089625;28;20010;-71
2022/12/27 14:48:23;;;;;;;;;;;5.20;99.90;;;;;;5090653;28;20322;-71
2022/12/27 14:51:03;;;;;;;;;;;5.20;99.90;;;;;;5086467;28;20370;-71
2022/12/27 14:53:38;;;;;;;;;;;5.20;99.90;;;;;;5073874;28;19926;-71
2022/12/27 14:56:11;;;;;;;;;;;5.10;99.90;;;;;;5088041;28;19929;-71
2022/12/27 14:58:46;;;;;;;;;;;5.20;99.90;;;;;;5071936;28;19928;-71
2022/12/27 15:01:14;;;;;;;;;;;5.10;99.90;;;;;;5070274;28;19925;-71
2022/12/27 15:03:57;;;;;;;;;;;5.10;99.90;;;;;;5072042;28;19932;-71
2022/12/27 15:06:38;;;;;;;;;;;5.10;99.90;;;;;;5068849;28;20554;-71
2022/12/27 15:09:04;;;;;;;;;;;5.10;99.90;;;;;;5069525;28;19928;-70
2022/12/27 15:11:51;;;;;;;;;;;5.20;99.90;;;;;;5055555;28;19943;-71
2022/12/27 15:14:23;;;;;;;;;;;5.20;99.90;;;;;;5068479;28;19925;-70
2022/12/27 15:16:58;;;;;;;;;;;5.10;99.90;;;;;;5055955;28;20336;-71
2022/12/27 15:19:27;;;;;;;;;;;5.10;99.90;;;;;;5053850;28;20382;-71
2022/12/27 15:22:00;;;;;;;;;;;5.00;99.90;;;;;;5036960;28;19956;-70
2022/12/27 15:24:34;;;;;;;;;;;5.00;99.90;;;;;;5062111;28;19973;-70
2022/12/27 15:27:06;;;;;;;;;;;5.00;99.90;;;;;;5069553;28;19921;-71
2022/12/27 15:29:41;;;;;;;;;;;5.00;99.90;;;;;;5053165;28;19944;-70
2022/12/27 15:32:26;;;;;;;;;;;4.90;99.90;;;;;;5058495;28;19928;-71
2022/12/27 15:35:14;;;;;;;;;;;4.90;99.90;;;;;;5056748;28;20396;-71
2022/12/27 15:37:45;;;;;;;;;;;4.90;99.90;;;;;;5051829;28;19920;-71
2022/12/27 15:40:26;;;;;;;;;;;4.90;99.90;;;;;;5050621;28;20063;-70
2022/12/27 15:43:05;;;;;;;;;;;4.80;99.90;;;;;;5047694;28;21232;-70
2022/12/27 15:45:55;;;;;;;;;;;4.80;99.90;;;;;;5066708;28;19941;-71
2022/12/27 15:48:40;;;;;;;;;;;4.80;99.90;;;;;;5046256;28;19991;-71
2022/12/27 15:51:11;;;;;;;;;;;4.80;99.90;;;;;;5036931;28;19924;-71
2022/12/27 15:54:02;;;;;;;;;;;4.80;99.90;;;;;;5068658;28;20515;-70
2022/12/27 15:56:36;;;;;;;;;;;4.80;99.90;;;;;;5053636;28;19925;-71
2022/12/27 15:59:21;;;;;;;;;;;4.80;99.90;;;;;;5048237;28;19921;-71
2022/12/27 16:01:47;;;;;;;;;;;4.80;99.90;;;;;;5064684;28;19931;-71
2022/12/27 16:04:31;;;;;;;;;;;4.80;99.90;;;;;;5052659;28;19924;-70
2022/12/27 16:07:03;;;;;;;;;;;4.80;99.90;;;;;;5068655;28;19935;-70
2022/12/27 16:09:36;;;;;;;;;;;4.80;99.90;;;;;;5047485;28;20352;-70
2022/12/27 16:12:02;;;;;;;;;;;4.70;99.90;;;;;;5070398;28;19921;-70
2022/12/27 16:14:31;;;;;;;;;;;4.80;99.90;;;;;;5086921;28;19951;-71
2022/12/27 16:17:04;;;;;;;;;;;4.80;99.90;;;;;;5069772;28;20041;-71
2022/12/27 16:19:29;;;;;;;;;;;4.80;99.90;;;;;;5048364;28;19920;-71
2022/12/27 16:21:55;;;;;;;;;;;4.80;99.90;;;;;;5070386;28;19920;-71
2022/12/27 16:24:30;;;;;;;;;;;4.80;99.90;;;;;;5085104;28;19920;-70
2022/12/27 16:27:04;;;;;;;;;;;4.70;99.90;;;;;;5052482;28;19927;-71
2022/12/27 16:29:34;;;;;;;;;;;4.70;99.90;;;;;;5087346;28;19925;-71
2022/12/27 16:32:32;;;;;;;;;;;4.60;99.90;;;;;;5087579;28;19926;-71